Time;durP1;ratioP1;P1;durP2;ratioP2;P2;SDS_P1;SDS_P2;PMS_P1;PMS_P2;Temp;Humidity;BMP_temperature;BMP_pressure;BME280_temperature;BME280_humidity;BME280_pressure;Samples;Min_cycle;Max_cycle;Signal;HPM_P1;HPM_P2
2023/01/17 00:01:39;;;;;;;0.75;0.40;;;4.60;99.90;;;;;;5108819;27;20188;-81
2023/01/17 00:09:52;;;;;;;2.30;0.50;;;4.40;99.90;;;;;;5112042;27;20678;-80
2023/01/17 00:12:19;;;;;;;2.03;0.50;;;4.40;99.90;;;;;;5110607;27;20207;-81
2023/01/17 00:14:46;;;;;;;2.63;0.65;;;4.30;99.90;;;;;;5110214;27;20904;-76
2023/01/17 00:17:12;;;;;;;1.38;0.50;;;4.30;99.90;;;;;;5108456;27;20540;-81
2023/01/17 01:34:21;;;;;;;9.35;1.08;;;4.50;99.90;;;;;;5110005;27;20651;-80
2023/01/17 01:36:47;;;;;;;7.50;0.98;;;4.50;99.90;;;;;;5109666;27;20196;-81
2023/01/17 01:39:13;;;;;;;5.38;0.90;;;4.50;99.90;;;;;;5109211;27;20177;-82
2023/01/17 01:41:39;;;;;;;7.57;0.80;;;4.60;99.90;;;;;;5112889;27;20604;-81
2023/01/17 01:44:44;;;;;;;7.70;1.30;;;4.50;99.90;;;;;;5109633;27;20554;-79
2023/01/17 01:47:19;;;;;;;8.52;1.00;;;4.50;99.90;;;;;;5110032;27;20232;-80
2023/01/17 01:49:47;;;;;;;3.78;0.80;;;4.50;99.90;;;;;;5115937;27;20176;-80
2023/01/17 01:52:14;;;;;;;2.88;0.90;;;4.50;99.90;;;;;;5114023;27;20180;-79
2023/01/17 01:54:45;;;;;;;4.68;1.20;;;4.50;99.90;;;;;;5102171;27;20758;-81
2023/01/17 01:57:16;;;;;;;3.47;0.75;;;4.50;99.90;;;;;;5116212;27;20195;-80
2023/01/17 01:59:46;;;;;;;6.60;1.27;;;4.40;99.90;;;;;;5117063;27;20180;-81
2023/01/17 02:02:13;;;;;;;13.50;1.20;;;4.40;99.90;;;;;;5113794;27;20194;-78
2023/01/17 02:04:39;;;;;;;6.78;1.30;;;4.50;99.90;;;;;;5116311;27;20187;-80
2023/01/17 02:07:13;;;;;;;9.77;1.38;;;4.50;99.90;;;;;;5095971;27;20259;-82
2023/01/17 02:09:39;;;;;;;7.07;1.50;;;4.50;99.90;;;;;;5117714;27;20216;-80
2023/01/17 02:12:06;;;;;;;9.50;1.45;;;4.60;99.90;;;;;;5115631;27;20200;-81
2023/01/17 02:14:32;;;;;;;17.63;1.35;;;4.50;99.90;;;;;;5116361;27;20323;-79
2023/01/17 02:17:35;;;;;;;4.85;0.95;;;4.50;99.90;;;;;;5115185;27;20203;-82
2023/01/17 02:20:28;;;;;;;5.18;1.05;;;4.60;99.90;;;;;;5114304;27;20849;-81
2023/01/17 02:23:22;;;;;;;11.00;1.40;;;4.60;99.90;;;;;;5114087;27;20255;-80
2023/01/17 02:26:00;;;;;;;12.02;1.50;;;4.60;99.90;;;;;;5113246;27;20757;-81
2023/01/17 02:28:35;;;;;;;4.85;1.17;;;4.60;99.90;;;;;;5115178;27;20212;-82
2023/01/17 02:31:11;;;;;;;11.52;1.40;;;4.60;99.90;;;;;;5117476;27;20180;-80
2023/01/17 02:34:24;;;;;;;11.13;1.38;;;4.60;99.90;;;;;;5101282;27;20187;-78
2023/01/17 02:37:03;;;;;;;13.90;1.45;;;4.60;99.90;;;;;;5107853;27;20254;-83
2023/01/17 02:39:42;;;;;;;11.50;1.35;;;4.60;99.90;;;;;;5114798;27;20172;-83
2023/01/17 02:42:18;;;;;;;13.23;1.50;;;4.70;99.90;;;;;;5114090;27;20279;-78
2023/01/17 02:44:44;;;;;;;7.65;1.50;;;4.70;99.90;;;;;;5115498;27;20173;-81
2023/01/17 02:47:25;;;;;;;7.53;1.23;;;4.70;99.90;;;;;;5135104;27;20216;-79
2023/01/17 02:50:03;;;;;;;9.48;1.45;;;4.70;99.90;;;;;;5115894;27;20233;-82
2023/01/17 02:53:00;;;;;;;9.02;1.40;;;4.70;99.90;;;;;;5114720;27;20199;-81
2023/01/17 02:55:58;;;;;;;12.15;1.55;;;4.70;99.90;;;;;;5114766;27;20624;-79
2023/01/17 02:58:50;;;;;;;6.90;1.17;;;4.70;99.90;;;;;;5098594;27;20227;-81
2023/01/17 03:01:22;;;;;;;8.35;1.40;;;4.70;99.90;;;;;;5108656;27;20177;-80
2023/01/17 03:04:16;;;;;;;6.13;1.20;;;4.70;99.90;;;;;;5115355;27;20272;-79
2023/01/17 03:06:54;;;;;;;4.65;1.15;;;4.70;99.90;;;;;;5111206;27;20699;-80
2023/01/17 03:09:21;;;;;;;11.57;1.30;;;4.70;99.90;;;;;;5113259;27;20240;-81
2023/01/17 03:11:47;;;;;;;10.65;1.40;;;4.70;99.90;;;;;;5110160;27;20188;-83
2023/01/17 03:14:13;;;;;;;10.45;1.67;;;4.70;99.90;;;;;;5111996;27;22678;-80
2023/01/17 03:16:38;;;;;;;8.63;1.13;;;4.80;99.90;;;;;;5110030;27;20220;-82
2023/01/17 03:19:04;;;;;;;8.07;1.50;;;4.70;99.90;;;;;;5113405;27;20184;-80
2023/01/17 03:21:30;;;;;;;10.82;1.40;;;4.70;99.90;;;;;;5109129;27;20538;-81
2023/01/17 03:23:56;;;;;;;7.32;1.00;;;4.60;99.90;;;;;;5112682;27;20195;-79
2023/01/17 03:26:22;;;;;;;7.00;1.20;;;4.70;99.90;;;;;;5110892;27;20639;-80
2023/01/17 03:28:47;;;;;;;6.57;1.00;;;4.60;99.90;;;;;;5080255;27;20240;-81
2023/01/17 03:31:18;;;;;;;9.00;0.93;;;4.60;99.90;;;;;;5113019;27;20184;-82
2023/01/17 03:33:44;;;;;;;9.25;1.52;;;4.60;99.90;;;;;;5111001;27;20188;-81
2023/01/17 03:36:10;;;;;;;9.80;1.17;;;4.60;99.90;;;;;;5110304;27;20207;-81
2023/01/17 03:38:36;;;;;;;8.68;1.33;;;4.60;99.90;;;;;;5111175;27;20200;-79
2023/01/17 03:41:02;;;;;;;8.38;1.38;;;4.60;99.90;;;;;;5106380;27;21013;-83
2023/01/17 03:43:28;;;;;;;4.38;1.17;;;4.50;99.90;;;;;;5113343;27;20185;-79
2023/01/17 03:46:02;;;;;;;8.85;1.05;;;4.50;99.90;;;;;;5097171;27;21100;-83
2023/01/17 03:48:28;;;;;;;9.10;1.38;;;4.50;99.90;;;;;;5109393;27;20216;-81
2023/01/17 03:50:53;;;;;;;11.75;1.45;;;4.50;99.90;;;;;;5093178;27;20229;-80
2023/01/17 03:53:19;;;;;;;4.15;1.10;;;4.50;99.90;;;;;;5108544;27;20204;-79
2023/01/17 03:55:46;;;;;;;7.32;1.08;;;4.50;99.90;;;;;;5110259;27;20217;-82
2023/01/17 03:58:11;;;;;;;8.57;1.30;;;4.50;99.90;;;;;;5078941;27;20200;-79
2023/01/17 04:00:37;;;;;;;10.00;1.52;;;4.40;99.90;;;;;;5107719;27;20184;-79
2023/01/17 04:03:03;;;;;;;11.90;1.35;;;4.40;99.90;;;;;;5110648;27;20184;-78
2023/01/17 04:05:29;;;;;;;9.52;1.15;;;4.40;99.90;;;;;;5111300;27;20184;-81
2023/01/17 04:07:55;;;;;;;5.93;1.25;;;4.40;99.90;;;;;;5110599;27;21969;-81
2023/01/17 04:10:20;;;;;;;12.10;1.40;;;4.30;99.90;;;;;;5077892;27;20193;-81
2023/01/17 04:12:46;;;;;;;11.30;1.42;;;4.30;99.90;;;;;;5110226;27;20185;-81
2023/01/17 04:15:12;;;;;;;7.72;1.13;;;4.30;99.90;;;;;;5110576;27;20554;-79
2023/01/17 04:17:38;;;;;;;10.38;1.30;;;4.30;99.90;;;;;;5108419;27;20203;-83
2023/01/17 04:20:04;;;;;;;9.57;1.15;;;4.30;99.90;;;;;;5109771;27;20180;-80
2023/01/17 04:22:30;;;;;;;8.02;1.60;;;4.20;99.90;;;;;;5107631;27;20371;-81
2023/01/17 04:24:57;;;;;;;7.13;1.45;;;4.20;99.90;;;;;;5111121;27;20245;-80
2023/01/17 04:27:23;;;;;;;10.27;1.55;;;4.20;99.90;;;;;;5108604;27;20217;-81
2023/01/17 04:29:48;;;;;;;12.10;1.17;;;4.20;99.90;;;;;;5100436;27;20212;-80
2023/01/17 04:32:14;;;;;;;9.85;1.40;;;4.10;99.90;;;;;;5110655;27;20197;-80
2023/01/17 04:34:40;;;;;;;10.05;1.20;;;4.10;99.90;;;;;;5093536;27;20501;-81
2023/01/17 04:37:06;;;;;;;9.23;1.13;;;4.10;99.90;;;;;;5111167;27;20595;-83
2023/01/17 04:39:32;;;;;;;13.07;1.35;;;4.10;99.90;;;;;;5112913;27;20893;-79
2023/01/17 04:41:57;;;;;;;10.13;1.20;;;4.00;99.90;;;;;;5062326;27;21237;-82
2023/01/17 04:44:23;;;;;;;8.82;1.30;;;4.00;99.90;;;;;;5110595;27;20176;-82
2023/01/17 04:46:49;;;;;;;9.35;1.30;;;4.00;99.90;;;;;;5095482;27;20224;-82
2023/01/17 04:49:15;;;;;;;13.98;1.45;;;4.00;99.90;;;;;;5074177;27;20188;-82
2023/01/17 04:51:40;;;;;;;11.70;1.40;;;3.90;99.90;;;;;;5077911;27;20224;-78
2023/01/17 04:54:06;;;;;;;8.70;1.20;;;3.90;99.90;;;;;;5095850;27;20267;-80
2023/01/17 04:56:32;;;;;;;5.65;1.13;;;3.90;99.90;;;;;;5106844;27;20204;-83
2023/01/17 04:58:58;;;;;;;13.82;1.30;;;3.90;99.90;;;;;;5091167;27;20190;-77
2023/01/17 05:01:24;;;;;;;8.15;1.25;;;3.80;99.90;;;;;;5110822;27;20195;-83
2023/01/17 05:03:50;;;;;;;6.57;1.15;;;3.80;99.90;;;;;;5097636;27;20656;-77
2023/01/17 05:06:15;;;;;;;5.72;1.27;;;3.80;99.90;;;;;;5106591;27;20181;-85
2023/01/17 05:08:41;;;;;;;10.52;1.25;;;3.70;99.90;;;;;;5109074;27;20640;-82
2023/01/17 05:11:07;;;;;;;9.60;1.38;;;3.70;99.90;;;;;;5106407;27;20207;-77
2023/01/17 05:13:33;;;;;;;11.95;1.20;;;3.70;99.90;;;;;;5108060;27;20180;-81
2023/01/17 05:15:58;;;;;;;6.85;1.30;;;3.70;99.90;;;;;;5104357;27;20540;-83
2023/01/17 05:18:24;;;;;;;7.63;1.25;;;3.60;99.90;;;;;;5110247;27;20225;-79
2023/01/17 05:20:50;;;;;;;9.07;1.33;;;3.70;99.90;;;;;;5108968;27;20181;-80
2023/01/17 05:23:16;;;;;;;12.57;1.90;;;3.60;99.90;;;;;;5108361;27;20181;-79
2023/01/17 05:25:43;;;;;;;6.72;1.08;;;3.60;99.90;;;;;;5095425;28;20223;-81
2023/01/17 05:28:10;;;;;;;10.93;1.60;;;3.60;99.90;;;;;;5129311;27;20225;-80
2023/01/17 05:30:37;;;;;;;18.60;1.50;;;3.60;99.90;;;;;;5107853;27;20185;-83
2023/01/17 05:33:02;;;;;;;7.53;1.42;;;3.60;99.90;;;;;;5110628;27;20193;-81
2023/01/17 05:35:33;;;;;;;11.10;1.30;;;3.50;99.90;;;;;;5097964;27;20188;-83
2023/01/17 05:37:59;;;;;;;9.95;1.73;;;3.50;99.90;;;;;;5108424;27;20184;-80
2023/01/17 05:40:27;;;;;;;6.97;1.05;;;3.50;99.90;;;;;;5109739;27;20560;-82
2023/01/17 05:42:55;;;;;;;10.52;1.15;;;3.50;99.90;;;;;;5109912;27;20235;-80
2023/01/17 05:45:22;;;;;;;6.30;0.95;;;3.40;99.90;;;;;;5110446;27;20188;-78
2023/01/17 05:47:50;;;;;;;4.85;0.93;;;3.40;99.90;;;;;;5108356;28;20247;-82
2023/01/17 05:50:19;;;;;;;10.35;1.10;;;3.40;99.90;;;;;;5130020;27;20232;-80
2023/01/17 05:52:57;;;;;;;4.75;0.98;;;3.30;99.90;;;;;;5108668;28;20207;-81
2023/01/17 05:55:26;;;;;;;2.28;0.82;;;3.30;99.90;;;;;;5111172;28;20184;-81
2023/01/17 05:57:52;;;;;;;9.30;1.05;;;3.30;99.90;;;;;;5109118;28;20243;-81
2023/01/17 06:00:19;;;;;;;8.07;1.23;;;3.20;99.90;;;;;;5110351;28;20189;-80
2023/01/17 06:02:45;;;;;;;3.67;0.88;;;3.20;99.90;;;;;;5109241;28;20549;-79
2023/01/17 06:05:12;;;;;;;8.25;1.38;;;3.10;99.90;;;;;;5094486;28;20185;-82
2023/01/17 06:07:38;;;;;;;5.18;1.00;;;3.10;99.90;;;;;;5107924;28;20377;-82
2023/01/17 06:10:04;;;;;;;10.45;1.17;;;3.10;99.90;;;;;;5108258;28;20189;-81
2023/01/17 06:12:31;;;;;;;7.03;1.55;;;3.10;99.90;;;;;;5107247;28;20265;-83
2023/01/17 06:14:56;;;;;;;11.02;1.80;;;3.10;99.90;;;;;;5111116;28;20584;-82
2023/01/17 06:17:22;;;;;;;8.63;1.73;;;3.10;99.90;;;;;;5124740;27;20184;-85
2023/01/17 06:19:48;;;;;;;7.22;1.90;;;3.10;99.90;;;;;;5110022;28;20241;-79
2023/01/17 06:22:14;;;;;;;13.95;2.08;;;3.10;99.90;;;;;;5097347;28;20623;-78
2023/01/17 06:24:39;;;;;;;9.05;1.83;;;3.00;99.90;;;;;;5107939;28;20188;-78
2023/01/17 06:27:08;;;;;;;7.70;1.73;;;3.10;99.90;;;;;;5106173;28;20299;-82
2023/01/17 06:29:34;;;;;;;10.95;1.65;;;3.10;99.90;;;;;;5109825;28;20355;-79
2023/01/17 06:31:59;;;;;;;6.75;1.48;;;3.00;99.90;;;;;;5107440;28;20202;-82
2023/01/17 06:34:25;;;;;;;9.43;1.73;;;3.00;99.90;;;;;;5080884;28;20897;-83
2023/01/17 06:36:51;;;;;;;8.40;1.40;;;3.10;99.90;;;;;;5111737;27;20184;-78
2023/01/17 06:39:17;;;;;;;4.10;1.13;;;3.10;99.90;;;;;;5097450;27;20648;-79
2023/01/17 06:41:42;;;;;;;7.85;1.42;;;3.00;99.90;;;;;;5109518;27;20184;-82
2023/01/17 06:44:09;;;;;;;8.05;1.27;;;3.00;99.90;;;;;;5114037;27;20199;-79
2023/01/17 06:46:34;;;;;;;9.73;1.50;;;3.00;99.90;;;;;;5079571;27;20189;-80
2023/01/17 06:49:00;;;;;;;4.60;1.13;;;3.00;99.90;;;;;;5099092;27;20433;-84
2023/01/17 06:51:26;;;;;;;4.63;1.13;;;3.00;99.90;;;;;;5114453;27;20232;-79
2023/01/17 06:53:52;;;;;;;8.50;1.40;;;3.00;99.90;;;;;;5111610;27;20241;-81
2023/01/17 06:56:19;;;;;;;8.02;1.38;;;2.90;99.90;;;;;;5095675;27;20595;-79
2023/01/17 06:58:50;;;;;;;7.30;1.20;;;2.90;99.90;;;;;;5116664;27;20855;-81
2023/01/17 07:01:16;;;;;;;5.82;1.08;;;2.90;99.90;;;;;;5112604;27;20189;-80
2023/01/17 07:03:42;;;;;;;8.38;1.17;;;2.90;99.90;;;;;;5114272;27;20181;-80
2023/01/17 07:06:08;;;;;;;5.25;1.63;;;2.80;99.90;;;;;;5098158;27;20800;-80
2023/01/17 07:08:34;;;;;;;10.18;1.08;;;2.80;99.90;;;;;;5114788;27;20215;-78
2023/01/17 07:11:03;;;;;;;6.05;1.30;;;2.80;99.90;;;;;;5112106;27;22438;-83
2023/01/17 07:13:32;;;;;;;8.20;1.30;;;2.70;99.90;;;;;;5111580;27;20374;-79
2023/01/17 07:16:00;;;;;;;3.72;1.00;;;2.70;99.90;;;;;;5095766;27;20267;-81
2023/01/17 07:18:26;;;;;;;8.15;1.00;;;2.60;99.90;;;;;;5115476;27;20435;-82
2023/01/17 07:20:53;;;;;;;3.58;1.10;;;2.70;99.90;;;;;;5106971;27;20326;-79
2023/01/17 07:23:20;;;;;;;3.10;1.05;;;2.70;99.90;;;;;;5107158;27;20197;-79
2023/01/17 07:25:59;;;;;;;5.80;1.30;;;2.70;99.90;;;;;;5111883;27;20193;-80
2023/01/17 07:28:26;;;;;;;7.35;1.13;;;2.70;99.90;;;;;;5114337;27;21214;-84
2023/01/17 07:30:52;;;;;;;9.05;1.70;;;2.70;99.90;;;;;;5112728;27;20361;-80
2023/01/17 07:33:19;;;;;;;7.15;1.23;;;2.70;99.90;;;;;;5110344;27;20895;-78
2023/01/17 07:35:45;;;;;;;7.35;1.30;;;2.60;99.90;;;;;;5104530;27;20194;-81
2023/01/17 07:38:16;;;;;;;5.28;1.45;;;2.70;99.90;;;;;;5108347;27;20337;-81
2023/01/17 07:40:42;;;;;;;5.95;1.52;;;2.60;99.90;;;;;;5110667;27;20192;-82
2023/01/17 07:43:12;;;;;;;9.23;1.33;;;2.70;99.90;;;;;;5094127;27;20206;-83
2023/01/17 07:45:43;;;;;;;6.32;1.20;;;2.70;99.90;;;;;;5106405;27;20173;-81
2023/01/17 07:48:10;;;;;;;3.67;1.33;;;2.70;99.90;;;;;;5108654;27;20216;-77
2023/01/17 07:50:35;;;;;;;5.05;1.50;;;2.70;99.90;;;;;;5111632;27;20244;-81
2023/01/17 07:53:02;;;;;;;7.07;1.60;;;2.70;99.90;;;;;;5109113;27;20236;-77
2023/01/17 07:55:28;;;;;;;9.35;1.27;;;2.80;99.90;;;;;;5111866;27;20921;-81
2023/01/17 07:57:54;;;;;;;4.97;1.23;;;2.70;99.90;;;;;;5108197;27;20208;-82
2023/01/17 08:00:21;;;;;;;5.85;1.25;;;2.80;99.90;;;;;;5110029;27;20200;-77
2023/01/17 08:02:48;;;;;;;9.20;1.52;;;2.70;99.90;;;;;;5112037;27;20185;-76
2023/01/17 08:05:14;;;;;;;4.63;1.45;;;2.70;99.90;;;;;;5113077;27;20195;-83
2023/01/17 08:07:40;;;;;;;10.85;1.30;;;2.80;99.90;;;;;;5107790;27;20334;-80
2023/01/17 08:10:07;;;;;;;5.65;1.52;;;2.90;99.90;;;;;;5108203;27;20226;-78
2023/01/17 08:12:34;;;;;;;5.50;1.40;;;2.80;99.90;;;;;;5113200;27;20181;-78
2023/01/17 08:15:00;;;;;;;7.25;1.60;;;2.90;99.90;;;;;;5111976;27;20181;-80
2023/01/17 08:17:27;;;;;;;10.18;1.67;;;2.90;99.90;;;;;;5108413;27;20633;-79
2023/01/17 08:19:53;;;;;;;5.72;1.40;;;2.90;99.90;;;;;;5110628;27;20186;-78
2023/01/17 08:22:18;;;;;;;7.15;1.52;;;2.90;99.90;;;;;;5106891;27;20219;-83
2023/01/17 08:24:44;;;;;;;5.78;1.10;;;3.00;99.90;;;;;;5104738;27;20207;-80
2023/01/17 08:27:10;;;;;;;6.03;1.85;;;3.00;99.90;;;;;;5107870;27;20561;-78
2023/01/17 08:29:36;;;;;;;5.90;1.80;;;3.00;99.90;;;;;;5107948;27;20200;-78
2023/01/17 08:32:02;;;;;;;8.13;1.65;;;3.10;99.90;;;;;;5109095;27;20189;-77
2023/01/17 08:34:28;;;;;;;6.03;1.70;;;3.10;99.90;;;;;;5112257;27;20177;-81
2023/01/17 08:36:54;;;;;;;6.93;1.75;;;3.20;99.90;;;;;;5106853;27;20185;-83
2023/01/17 08:39:20;;;;;;;5.82;1.27;;;3.20;99.90;;;;;;5112992;27;21198;-83
2023/01/17 08:41:46;;;;;;;10.15;1.60;;;3.30;99.90;;;;;;5108120;27;20672;-81
2023/01/17 08:44:13;;;;;;;7.10;1.40;;;3.30;99.90;;;;;;5110162;27;20181;-77
2023/01/17 08:46:40;;;;;;;4.07;1.40;;;3.50;99.90;;;;;;5104809;27;20204;-79
2023/01/17 08:49:06;;;;;;;5.07;1.40;;;4.00;99.90;;;;;;5104747;27;20233;-77
2023/01/17 08:51:32;;;;;;;6.63;1.33;;;4.70;99.90;;;;;;5111707;27;20687;-77
2023/01/17 08:53:58;;;;;;;8.88;1.30;;;5.70;99.90;;;;;;5111183;27;20645;-76
2023/01/17 08:56:24;;;;;;;5.65;1.17;;;6.70;99.90;;;;;;5105612;27;20217;-78
2023/01/17 08:58:50;;;;;;;3.72;1.20;;;7.50;99.90;;;;;;5102203;27;20578;-78
2023/01/17 09:01:19;;;;;;;3.25;1.33;;;8.20;99.90;;;;;;5111660;27;20211;-77
2023/01/17 09:03:48;;;;;;;7.28;1.13;;;8.90;99.90;;;;;;5110219;27;20176;-77
2023/01/17 09:06:15;;;;;;;8.73;1.40;;;9.50;99.90;;;;;;5109490;27;20198;-79
2023/01/17 09:08:45;;;;;;;2.72;1.08;;;10.20;99.90;;;;;;5111640;27;20209;-77
2023/01/17 09:11:14;;;;;;;11.82;1.55;;;10.70;99.90;;;;;;5128255;27;20173;-78
2023/01/17 09:13:41;;;;;;;6.05;1.30;;;11.20;99.90;;;;;;5116847;27;20229;-80
2023/01/17 09:16:07;;;;;;;4.68;1.38;;;11.60;99.90;;;;;;5111737;27;20222;-77
2023/01/17 09:18:34;;;;;;;4.80;1.25;;;11.80;99.90;;;;;;5110875;27;20189;-79
2023/01/17 09:21:15;;;;;;;5.55;1.40;;;12.10;99.90;;;;;;5121049;27;20193;-76
2023/01/17 09:23:42;;;;;;;6.15;1.30;;;12.20;99.90;;;;;;5110501;27;20164;-78
2023/01/17 09:26:24;;;;;;;5.32;1.40;;;12.40;99.90;;;;;;5109574;27;20260;-77
2023/01/17 09:28:50;;;;;;;4.57;1.73;;;12.50;99.90;;;;;;5113903;27;20208;-78
2023/01/17 09:31:17;;;;;;;8.63;2.25;;;12.60;99.90;;;;;;5106621;27;20259;-76
2023/01/17 09:33:43;;;;;;;5.35;1.20;;;12.60;99.90;;;;;;5113529;27;20180;-80
2023/01/17 09:36:09;;;;;;;8.02;1.67;;;12.60;99.90;;;;;;5109035;27;20565;-80
2023/01/17 09:38:36;;;;;;;4.13;1.25;;;12.70;99.90;;;;;;5111405;27;20181;-81
2023/01/17 09:41:02;;;;;;;7.43;1.63;;;12.80;99.90;;;;;;5105911;27;20219;-77
2023/01/17 09:43:46;;;;;;;8.57;1.58;;;12.90;99.90;;;;;;5093136;28;20558;-77
2023/01/17 09:46:22;;;;;;;4.35;1.15;;;12.80;99.90;;;;;;5108500;27;20214;-79
2023/01/17 09:49:07;;;;;;;4.47;0.88;;;12.50;99.90;;;;;;5107013;28;20220;-77
2023/01/17 09:51:35;;;;;;;2.97;0.90;;;12.10;99.40;;;;;;5101305;28;20425;-80
2023/01/17 09:54:01;;;;;;;2.53;0.80;;;11.80;99.70;;;;;;5109822;28;20184;-84
2023/01/17 09:56:29;;;;;;;3.40;0.85;;;11.70;99.60;;;;;;5109862;28;20649;-77
2023/01/17 09:59:26;;;;;;;2.08;0.70;;;11.40;99.90;;;;;;5108098;28;20221;-76
2023/01/17 10:01:52;;;;;;;2.80;0.80;;;11.00;99.60;;;;;;5103822;28;20215;-77
2023/01/17 10:04:36;;;;;;;0.90;0.50;;;10.90;99.90;;;;;;5113501;28;20188;-78
2023/01/17 10:07:10;;;;;;;1.05;0.68;;;10.80;99.90;;;;;;5109035;28;20274;-77
2023/01/17 10:09:54;;;;;;;0.57;0.47;;;10.80;99.60;;;;;;5109383;27;20173;-79
2023/01/17 10:12:29;;;;;;;0.70;0.60;;;10.50;98.30;;;;;;5133386;27;20258;-79
2023/01/17 10:15:01;;;;;;;0.88;0.50;;;10.40;99.00;;;;;;5116153;27;20184;-82
2023/01/17 10:17:30;;;;;;;0.90;0.50;;;10.20;99.30;;;;;;5118315;27;20255;-84
2023/01/17 10:20:34;;;;;;;1.95;0.60;;;10.30;99.60;;;;;;5115096;27;20199;-77
2023/01/17 10:23:25;;;;;;;2.88;0.70;;;10.40;97.70;;;;;;5089066;27;20192;-79
2023/01/17 10:25:55;;;;;;;1.40;0.80;;;10.50;98.60;;;;;;5113139;27;20208;-80
2023/01/17 10:28:33;;;;;;;1.88;0.68;;;10.60;98.80;;;;;;5114527;27;20344;-79
2023/01/17 10:31:12;;;;;;;1.27;0.57;;;10.80;98.50;;;;;;5110833;27;20188;-80
2023/01/17 10:33:49;;;;;;;4.10;0.80;;;10.80;97.60;;;;;;5115924;27;20288;-83
2023/01/17 10:36:28;;;;;;;1.23;0.90;;;10.90;96.90;;;;;;5112385;27;20180;-80
2023/01/17 10:39:00;;;;;;;1.70;0.60;;;10.90;96.80;;;;;;5115702;27;20195;-83
2023/01/17 10:41:32;;;;;;;5.15;0.90;;;10.70;97.10;;;;;;5114721;27;20275;-80
2023/01/17 10:44:06;;;;;;;4.07;0.80;;;10.30;97.60;;;;;;5114240;27;20184;-79
2023/01/17 10:46:42;;;;;;;4.53;0.98;;;9.90;98.40;;;;;;5098692;27;20288;-79
2023/01/17 10:49:19;;;;;;;2.78;0.55;;;9.70;99.30;;;;;;5114620;27;20612;-76
2023/01/17 10:51:58;;;;;;;1.42;0.70;;;9.50;99.60;;;;;;5111995;27;21182;-82
2023/01/17 10:54:39;;;;;;;1.63;0.57;;;9.50;99.90;;;;;;5110323;27;20267;-77
2023/01/17 10:57:14;;;;;;;0.75;0.60;;;9.80;99.90;;;;;;5111730;27;20845;-76
2023/01/17 10:59:40;;;;;;;1.77;0.60;;;10.10;99.90;;;;;;5111728;27;20277;-76
2023/01/17 11:02:22;;;;;;;1.73;0.70;;;10.40;99.40;;;;;;5111423;27;20316;-79
2023/01/17 11:04:53;;;;;;;2.38;0.77;;;10.60;99.10;;;;;;5118643;27;20187;-79
2023/01/17 11:07:28;;;;;;;2.17;1.17;;;10.80;98.80;;;;;;5111616;27;20216;-78
2023/01/17 11:09:55;;;;;;;2.13;0.80;;;11.10;98.30;;;;;;5111778;27;20278;-81
2023/01/17 11:12:36;;;;;;;4.78;1.00;;;11.40;98.20;;;;;;5114728;27;20246;-80
2023/01/17 11:15:08;;;;;;;1.52;0.77;;;11.60;97.30;;;;;;5113795;27;20180;-80
2023/01/17 11:17:37;;;;;;;3.13;1.13;;;11.80;97.30;;;;;;5114633;27;20192;-76
2023/01/17 11:20:18;;;;;;;2.95;1.20;;;11.90;96.60;;;;;;5111607;27;20261;-78
2023/01/17 11:23:01;;;;;;;5.40;1.30;;;12.00;97.00;;;;;;5109021;27;20177;-82
2023/01/17 11:25:29;;;;;;;3.40;1.00;;;12.10;96.70;;;;;;5114843;27;22567;-83
2023/01/17 11:28:28;;;;;;;4.15;0.95;;;12.30;96.20;;;;;;5109672;27;20217;-79
2023/01/17 11:30:59;;;;;;;2.38;0.85;;;12.40;95.80;;;;;;5111512;27;20254;-80
2023/01/17 11:33:44;;;;;;;3.85;0.90;;;12.50;96.20;;;;;;5112189;27;20180;-83
2023/01/17 11:36:18;;;;;;;4.00;0.90;;;12.60;95.80;;;;;;5110456;27;20191;-81
2023/01/17 11:39:01;;;;;;;7.45;1.00;;;12.50;95.50;;;;;;5111995;27;20687;-81
2023/01/17 11:41:41;;;;;;;5.10;1.50;;;12.60;95.30;;;;;;5114831;27;20203;-83
2023/01/17 11:44:21;;;;;;;5.03;1.27;;;12.70;95.00;;;;;;5113114;27;20292;-83
2023/01/17 11:46:47;;;;;;;3.85;1.30;;;12.80;94.10;;;;;;5109625;27;20661;-81
2023/01/17 11:49:23;;;;;;;7.53;1.00;;;12.90;94.40;;;;;;5111787;27;20184;-79
2023/01/17 11:51:54;;;;;;;4.30;1.40;;;13.00;93.00;;;;;;5109965;27;20236;-75
2023/01/17 11:54:37;;;;;;;5.00;1.15;;;13.10;93.60;;;;;;5112869;27;20299;-81
2023/01/17 11:57:05;;;;;;;3.53;1.13;;;13.10;93.30;;;;;;5112828;27;20192;-76
2023/01/17 11:59:39;;;;;;;3.92;0.90;;;13.10;93.50;;;;;;5113024;27;20190;-80
2023/01/17 12:02:30;;;;;;;2.75;1.15;;;13.10;92.60;;;;;;5112291;27;20185;-82
2023/01/17 12:05:28;;;;;;;3.78;1.02;;;13.10;92.80;;;;;;5116637;27;20343;-83
2023/01/17 12:08:24;;;;;;;6.85;1.17;;;13.20;92.20;;;;;;5110631;27;20215;-81
2023/01/17 12:11:18;;;;;;;3.05;1.08;;;13.20;92.50;;;;;;5110817;27;20183;-76
2023/01/17 12:14:09;;;;;;;6.90;1.40;;;13.20;92.50;;;;;;5116654;27;20170;-79
2023/01/17 12:16:56;;;;;;;4.05;1.60;;;13.10;91.80;;;;;;5116063;27;20366;-81
2023/01/17 12:19:33;;;;;;;5.88;1.25;;;13.00;91.80;;;;;;5113900;27;20177;-81
2023/01/17 12:22:02;;;;;;;7.70;1.20;;;13.10;91.60;;;;;;5107946;27;20180;-85
2023/01/17 12:24:46;;;;;;;8.13;1.10;;;13.00;91.90;;;;;;5113147;27;20196;-77
2023/01/17 12:27:38;;;;;;;4.53;1.02;;;13.00;91.10;;;;;;5110196;27;20239;-78
2023/01/17 12:30:16;;;;;;;7.82;1.20;;;12.80;90.90;;;;;;5110240;27;20209;-80
2023/01/17 12:33:14;;;;;;;5.38;1.38;;;12.60;90.90;;;;;;5110796;27;20177;-77
2023/01/17 12:35:52;;;;;;;6.13;1.15;;;12.40;91.20;;;;;;5111407;27;20196;-78
2023/01/17 12:38:38;;;;;;;6.03;1.27;;;12.10;91.90;;;;;;5116393;27;20240;-77
2023/01/17 12:41:22;;;;;;;4.80;1.17;;;12.00;92.40;;;;;;5109234;27;20192;-82
2023/01/17 12:43:53;;;;;;;5.90;1.00;;;11.80;92.10;;;;;;5114204;27;20181;-79
2023/01/17 12:46:37;;;;;;;8.20;2.00;;;11.90;92.40;;;;;;5109958;27;20192;-80
2023/01/17 12:49:18;;;;;;;3.35;1.20;;;11.80;92.10;;;;;;5117344;27;20615;-79
2023/01/17 12:51:49;;;;;;;5.15;1.20;;;11.90;91.50;;;;;;5111156;27;20784;-82
2023/01/17 12:54:20;;;;;;;6.68;1.60;;;11.90;90.90;;;;;;5114856;27;20211;-80
2023/01/17 12:56:53;;;;;;;5.10;1.30;;;11.90;90.90;;;;;;5111751;27;20211;-80
2023/01/17 12:59:39;;;;;;;4.13;1.48;;;11.90;90.60;;;;;;5115333;27;20593;-78
2023/01/17 13:02:26;;;;;;;6.30;1.35;;;11.90;90.50;;;;;;5114830;27;20184;-76
2023/01/17 13:05:06;;;;;;;4.00;1.13;;;11.90;89.40;;;;;;5112496;27;20651;-81
2023/01/17 13:07:39;;;;;;;2.30;1.10;;;11.80;88.80;;;;;;5106554;27;20239;-78
2023/01/17 13:10:19;;;;;;;5.80;1.35;;;11.70;88.40;;;;;;5113290;27;20334;-78
2023/01/17 13:12:46;;;;;;;7.10;1.95;;;11.70;88.10;;;;;;5110646;27;20180;-77
2023/01/17 13:15:17;;;;;;;3.97;1.45;;;11.70;87.40;;;;;;5114173;27;20222;-77
2023/01/17 13:17:49;;;;;;;5.22;1.23;;;11.70;86.70;;;;;;5109057;27;20184;-83
2023/01/17 13:20:22;;;;;;;6.45;1.38;;;11.60;86.00;;;;;;5109488;27;20288;-83
2023/01/17 13:22:50;;;;;;;5.47;1.33;;;11.40;86.40;;;;;;5110093;27;20185;-80
2023/01/17 13:25:36;;;;;;;3.25;1.25;;;11.30;87.40;;;;;;5110245;27;20180;-81
2023/01/17 13:28:26;;;;;;;4.05;1.20;;;11.10;87.30;;;;;;5109984;27;20201;-78
2023/01/17 13:31:03;;;;;;;4.32;1.20;;;10.90;88.20;;;;;;5111237;27;20217;-77
2023/01/17 13:34:02;;;;;;;3.70;1.10;;;10.70;88.00;;;;;;5111592;27;20180;-76
2023/01/17 13:36:58;;;;;;;6.10;1.33;;;10.40;87.30;;;;;;5110720;27;20272;-78
2023/01/17 13:39:39;;;;;;;8.48;1.15;;;10.20;88.00;;;;;;5131403;27;20248;-81
2023/01/17 13:42:23;;;;;;;2.35;0.95;;;9.90;88.00;;;;;;5110733;27;20284;-80
2023/01/17 13:44:49;;;;;;;5.90;1.40;;;9.70;87.50;;;;;;5110293;27;20626;-77
2023/01/17 13:47:18;;;;;;;5.50;1.55;;;9.40;89.20;;;;;;5110044;27;20224;-77
2023/01/17 13:49:50;;;;;;;3.55;1.17;;;9.20;90.00;;;;;;5113071;27;20185;-78
2023/01/17 13:52:19;;;;;;;4.38;1.70;;;9.00;90.70;;;;;;5105375;28;20651;-81
2023/01/17 13:54:48;;;;;;;5.43;1.35;;;8.90;90.70;;;;;;5110732;28;20265;-78
2023/01/17 13:59:50;;;;;;;5.63;1.48;;;8.60;91.20;;;;;;5112230;28;20192;-79
2023/01/17 14:02:31;;;;;;;5.50;1.23;;;8.50;91.60;;;;;;5109655;28;20208;-78
2023/01/17 14:05:34;;;;;;;6.25;1.48;;;8.50;92.00;;;;;;5113701;28;20200;-75
2023/01/17 14:08:03;;;;;;;2.63;1.00;;;8.50;92.00;;;;;;5109989;28;20284;-77
2023/01/17 14:10:36;;;;;;;6.05;1.25;;;8.60;92.20;;;;;;5126538;27;21117;-76
2023/01/17 14:13:05;;;;;;;4.13;1.20;;;8.70;92.10;;;;;;5132099;27;20280;-80
2023/01/17 14:15:45;;;;;;;4.35;1.10;;;8.70;92.10;;;;;;5110465;28;20663;-77
2023/01/17 14:18:35;;;;;;;2.47;1.10;;;8.80;92.10;;;;;;5108381;28;20177;-76
2023/01/17 14:21:32;;;;;;;3.70;0.90;;;9.00;91.40;;;;;;5111879;28;21304;-80
2023/01/17 14:24:11;;;;;;;3.95;1.10;;;9.00;91.20;;;;;;5110317;28;20205;-79
2023/01/17 14:26:50;;;;;;;6.13;1.33;;;9.10;91.20;;;;;;5110069;28;20204;-77
2023/01/17 14:29:41;;;;;;;2.95;1.38;;;9.10;91.10;;;;;;5109724;28;20195;-76
2023/01/17 14:32:23;;;;;;;6.93;1.15;;;9.20;91.40;;;;;;5112184;27;20645;-81
2023/01/17 14:34:50;;;;;;;4.10;1.13;;;9.30;91.50;;;;;;5096444;28;20185;-81
2023/01/17 14:37:28;;;;;;;1.77;0.75;;;9.40;91.70;;;;;;5109022;28;20189;-81
2023/01/17 14:39:54;;;;;;;2.65;0.90;;;9.30;91.30;;;;;;5107687;28;20248;-83
2023/01/17 14:42:23;;;;;;;8.05;1.13;;;9.20;91.50;;;;;;5096227;28;20189;-78